createdAt,value
2022-12-19T00:01:57.563Z,98.07
2022-12-19T00:04:25.549Z,93.40
2022-12-19T00:06:53.102Z,96.88
2022-12-19T00:09:20.969Z,92.80
2022-12-19T00:11:49.041Z,90.13
2022-12-19T00:14:17.439Z,90.20
2022-12-19T00:16:45.815Z,90.40
2022-12-19T00:19:14.099Z,100.75
2022-12-19T00:21:42.000Z,99.93
2022-12-19T00:24:20.901Z,93.10
2022-12-19T00:29:18.148Z,102.03
2022-12-19T00:31:46.083Z,92.30
2022-12-19T00:34:16.187Z,93.75
2022-12-19T00:36:43.857Z,93.07
2022-12-19T00:39:11.972Z,82.63
2022-12-19T00:41:42.563Z,91.60
2022-12-19T00:44:14.776Z,95.75
2022-12-19T00:46:42.757Z,88.60
2022-12-19T00:49:15.468Z,90.60
2022-12-19T00:51:43.029Z,89.30
2022-12-19T00:54:11.108Z,94.95
2022-12-19T00:56:39.491Z,92.03
2022-12-19T00:59:10.798Z,97.38
2022-12-19T01:01:42.055Z,94.75
2022-12-19T01:04:30.781Z,91.03
2022-12-19T01:07:01.720Z,94.25
2022-12-19T01:09:33.996Z,91.93
2022-12-19T01:12:24.763Z,82.63
2022-12-19T01:14:59.481Z,88.90
2022-12-19T01:17:43.719Z,97.05
2022-12-19T01:20:16.749Z,91.28
2022-12-19T01:22:46.704Z,96.90
2022-12-19T01:25:15.321Z,92.18
2022-12-19T01:27:42.928Z,91.88
2022-12-19T01:30:12.473Z,93.25
2022-12-19T01:32:41.468Z,94.90
2022-12-19T01:35:17.358Z,96.30
2022-12-19T01:37:55.900Z,93.38
2022-12-19T01:40:35.037Z,95.63
2022-12-19T01:43:03.455Z,94.53
2022-12-19T01:45:43.542Z,96.03
2022-12-19T01:48:20.644Z,90.38
2022-12-19T01:51:20.042Z,92.43
2022-12-19T01:53:57.158Z,93.70
2022-12-19T01:56:30.769Z,86.05
2022-12-19T01:59:06.364Z,95.50
2022-12-19T02:01:52.094Z,95.22
2022-12-19T02:04:30.918Z,88.20
2022-12-19T02:07:15.274Z,90.78
2022-12-19T02:09:50.325Z,87.50
2022-12-19T02:12:36.595Z,87.53
2022-12-19T02:15:07.311Z,99.68
2022-12-19T02:17:50.162Z,90.22
2022-12-19T02:20:30.188Z,91.60
2022-12-19T02:23:17.907Z,87.75
2022-12-19T02:26:37.445Z,92.07
2022-12-19T02:29:20.959Z,91.38
2022-12-19T02:32:14.583Z,92.20
2022-12-19T02:35:06.021Z,90.38
2022-12-19T02:37:45.418Z,90.30
2022-12-19T02:40:18.509Z,106.20
2022-12-19T02:42:56.846Z,100.93
2022-12-19T02:45:30.156Z,104.95
2022-12-19T02:48:05.765Z,92.53
2022-12-19T02:50:46.803Z,96.88
2022-12-19T02:53:23.967Z,94.05
2022-12-19T02:56:16.385Z,93.07
2022-12-19T02:58:58.933Z,86.60
2022-12-19T03:05:34.047Z,79.05
2022-12-19T03:10:53.432Z,88.60
2022-12-19T03:13:38.948Z,88.07
2022-12-19T03:16:11.189Z,92.32
2022-12-19T03:18:40.302Z,86.65
2022-12-19T03:21:36.412Z,80.73
2022-12-19T03:24:07.139Z,90.45
2022-12-19T03:27:04.387Z,85.97
2022-12-19T03:29:47.278Z,93.20
2022-12-19T03:32:16.789Z,96.18
2022-12-19T03:35:06.020Z,97.35
2022-12-19T03:37:38.402Z,94.57
2022-12-19T03:40:21.501Z,89.60
2022-12-19T03:43:11.248Z,84.82
2022-12-19T03:46:22.565Z,92.28
2022-12-19T03:48:54.022Z,92.72
2022-12-19T03:52:00.995Z,93.70
2022-12-19T03:54:35.037Z,86.88
2022-12-19T03:57:30.815Z,90.47
2022-12-19T04:00:15.318Z,94.15
2022-12-19T04:02:50.053Z,85.60
2022-12-19T04:05:26.515Z,87.93
2022-12-19T04:08:07.114Z,85.07
2022-12-19T04:10:47.355Z,87.85
2022-12-19T04:13:23.225Z,84.03
2022-12-19T04:16:12.087Z,98.53
2022-12-19T04:18:45.470Z,89.47
2022-12-19T04:21:27.997Z,83.10
2022-12-19T04:24:04.655Z,95.43
2022-12-19T04:26:34.433Z,93.60
2022-12-19T04:29:08.114Z,83.15
2022-12-19T04:31:36.642Z,92.78
2022-12-19T04:34:04.773Z,100.35
2022-12-19T04:36:32.691Z,97.53
2022-12-19T04:39:00.708Z,97.13
2022-12-19T04:41:28.314Z,94.47
2022-12-19T04:43:56.141Z,87.30
2022-12-19T04:46:23.645Z,105.75
2022-12-19T04:48:51.532Z,97.63
2022-12-19T04:51:19.102Z,102.93
2022-12-19T04:53:47.001Z,92.38
2022-12-19T04:56:14.746Z,94.63
2022-12-19T04:58:42.727Z,89.85
2022-12-19T05:01:10.748Z,95.53
2022-12-19T05:03:38.745Z,96.70
2022-12-19T05:06:14.606Z,93.13
2022-12-19T05:08:44.362Z,83.88
2022-12-19T05:11:19.450Z,96.22
2022-12-19T05:13:50.114Z,95.97
2022-12-19T05:16:18.350Z,87.88
2022-12-19T05:18:46.444Z,91.82
2022-12-19T05:21:14.165Z,94.30
2022-12-19T05:23:42.318Z,103.57
2022-12-19T05:26:12.638Z,104.38
2022-12-19T05:28:40.532Z,95.35
2022-12-19T05:31:20.485Z,101.03
2022-12-19T05:33:49.495Z,105.05
2022-12-19T05:36:18.775Z,91.60
2022-12-19T05:38:46.747Z,97.30
2022-12-19T05:41:17.772Z,95.63
2022-12-19T05:43:50.029Z,97.05
2022-12-19T05:46:18.036Z,94.65
2022-12-19T05:48:45.937Z,96.25
2022-12-19T05:51:14.024Z,94.53
2022-12-19T05:53:42.641Z,99.50
2022-12-19T05:56:14.029Z,102.40
2022-12-19T05:58:42.998Z,99.20
2022-12-19T06:01:19.252Z,96.70
2022-12-19T06:03:47.816Z,99.85
2022-12-19T06:06:22.366Z,108.93
2022-12-19T06:09:00.108Z,103.07
2022-12-19T06:11:28.076Z,98.65
2022-12-19T06:13:55.937Z,101.25
2022-12-19T06:16:24.423Z,99.50
2022-12-19T06:18:52.371Z,109.10
2022-12-19T06:21:22.809Z,121.70
2022-12-19T06:23:51.298Z,109.22
2022-12-19T06:26:21.045Z,105.68
2022-12-19T06:28:51.806Z,120.75
2022-12-19T06:31:22.064Z,110.13
2022-12-19T06:33:50.909Z,115.78
2022-12-19T06:36:31.331Z,116.05
2022-12-19T06:38:59.491Z,116.22
2022-12-19T06:41:46.849Z,124.65
2022-12-19T06:44:17.448Z,116.68
2022-12-19T06:46:45.361Z,112.15
2022-12-19T06:49:13.387Z,116.00
2022-12-19T06:51:41.172Z,110.85
2022-12-19T06:54:13.130Z,118.43
2022-12-19T06:56:43.261Z,112.75
2022-12-19T06:59:16.508Z,122.28
2022-12-19T07:02:13.535Z,114.75
2022-12-19T07:04:55.511Z,115.82
2022-12-19T07:07:23.764Z,113.57
2022-12-19T07:09:51.860Z,113.70
2022-12-19T07:12:19.402Z,116.53
2022-12-19T07:14:52.985Z,119.07
2022-12-19T07:17:24.580Z,130.88
2022-12-19T07:19:56.515Z,121.28
2022-12-19T07:22:29.253Z,118.60
2022-12-19T07:24:58.681Z,112.97
2022-12-19T07:27:35.267Z,110.20
2022-12-19T07:30:06.355Z,105.82
2022-12-19T07:32:34.239Z,89.95
2022-12-19T07:35:06.878Z,80.47
2022-12-19T07:37:34.496Z,88.03
2022-12-19T07:40:03.056Z,78.47
2022-12-19T07:42:32.857Z,83.88
2022-12-19T07:45:01.692Z,87.13
2022-12-19T07:47:29.384Z,78.53
2022-12-19T07:49:57.500Z,77.70
2022-12-19T07:52:25.227Z,71.32
2022-12-19T07:54:53.531Z,73.00
2022-12-19T07:57:21.414Z,72.03
2022-12-19T07:59:49.307Z,71.70
2022-12-19T08:02:16.828Z,73.70
2022-12-19T08:04:44.884Z,64.95
2022-12-19T08:07:12.873Z,67.30
2022-12-19T08:09:40.750Z,64.53
2022-12-19T08:12:08.587Z,63.53
2022-12-19T08:14:36.554Z,69.53
2022-12-19T08:17:20.077Z,66.07
2022-12-19T08:19:49.399Z,62.58
2022-12-19T08:22:16.919Z,58.15
2022-12-19T08:24:44.793Z,55.00
2022-12-19T08:27:12.352Z,53.13
2022-12-19T08:29:40.210Z,53.47
2022-12-19T08:32:07.864Z,59.58
2022-12-19T08:34:35.913Z,62.45
2022-12-19T08:37:03.426Z,53.70
2022-12-19T08:39:31.248Z,61.28
2022-12-19T08:41:58.902Z,48.17
2022-12-19T08:44:27.425Z,49.50
2022-12-19T08:46:55.099Z,50.83
2022-12-19T08:49:23.017Z,51.53
2022-12-19T08:51:50.565Z,52.28
2022-12-19T08:54:18.449Z,49.25
2022-12-19T08:56:47.146Z,45.60
2022-12-19T08:59:30.627Z,45.10
2022-12-19T09:02:02.780Z,50.33
2022-12-19T09:06:01.588Z,51.08
2022-12-19T09:07:21.571Z,41.55
2022-12-19T09:09:49.424Z,43.20
2022-12-19T09:12:17.311Z,52.72
2022-12-19T09:14:45.252Z,51.17
2022-12-19T09:17:13.401Z,44.22
2022-12-19T09:19:44.142Z,42.50
2022-12-19T09:22:15.548Z,47.03
2022-12-19T09:24:43.795Z,43.90
2022-12-19T09:27:11.346Z,61.08
2022-12-19T09:29:39.589Z,44.00
2022-12-19T09:32:07.459Z,37.22
2022-12-19T09:34:37.695Z,39.72
2022-12-19T09:37:15.995Z,38.95
2022-12-19T09:39:46.428Z,35.67
2022-12-19T09:42:41.777Z,36.65
2022-12-19T09:45:33.916Z,32.38
2022-12-19T09:48:02.951Z,39.20
2022-12-19T09:51:10.519Z,33.30
2022-12-19T09:54:23.531Z,36.65
2022-12-19T09:56:59.855Z,42.80
2022-12-19T09:59:49.621Z,41.50
2022-12-19T10:02:49.437Z,40.10
2022-12-19T10:07:11.921Z,44.65
2022-12-19T10:08:50.008Z,40.45
2022-12-19T10:12:39.024Z,37.60
2022-12-19T10:15:59.006Z,40.58
2022-12-19T10:19:19.816Z,42.58
2022-12-19T10:22:19.236Z,43.17
2022-12-19T10:28:11.558Z,42.40
2022-12-19T10:30:53.994Z,46.38
2022-12-19T10:33:34.300Z,43.95
2022-12-19T10:36:03.193Z,42.38
2022-12-19T10:39:06.400Z,39.42
2022-12-19T10:41:42.265Z,41.47
2022-12-19T10:44:13.895Z,40.42
2022-12-19T10:46:47.704Z,40.22
2022-12-19T10:49:18.121Z,41.30
2022-12-19T10:52:01.951Z,38.00
2022-12-19T10:54:44.092Z,38.85
2022-12-19T10:57:27.398Z,44.40
2022-12-19T11:00:18.058Z,40.17
2022-12-19T11:02:49.529Z,50.35
2022-12-19T11:05:39.240Z,35.70
2022-12-19T11:08:06.688Z,41.42
2022-12-19T11:11:32.571Z,38.70
2022-12-19T11:18:57.068Z,41.78
2022-12-19T11:24:46.186Z,44.72
2022-12-19T11:29:15.463Z,42.05
2022-12-19T11:29:43.287Z,40.75
2022-12-19T11:30:35.805Z,48.42
2022-12-19T11:30:37.982Z,49.45
2022-12-19T11:34:24.836Z,43.88
2022-12-19T11:37:00.442Z,44.30
2022-12-19T11:40:03.375Z,35.20
2022-12-19T11:43:43.151Z,45.10
2022-12-19T11:46:26.099Z,40.33
2022-12-19T11:49:11.427Z,40.30
2022-12-19T11:51:48.053Z,47.75
2022-12-19T11:54:24.423Z,50.70
2022-12-19T11:56:53.190Z,49.03
2022-12-19T11:59:31.744Z,49.60
2022-12-19T12:02:30.760Z,54.90
2022-12-19T12:05:28.483Z,48.22
2022-12-19T12:10:30.302Z,49.67
2022-12-19T12:19:47.703Z,55.22
2022-12-19T12:24:05.114Z,73.93
2022-12-19T12:28:59.747Z,78.70
2022-12-19T12:31:05.047Z,95.55
2022-12-19T12:31:06.542Z,123.32
2022-12-19T12:31:45.688Z,94.03
2022-12-19T12:31:56.216Z,117.35
2022-12-19T12:35:29.220Z,118.20
2022-12-19T12:37:47.586Z,134.27
2022-12-19T12:39:31.537Z,88.80
2022-12-19T12:42:27.520Z,122.57
2022-12-19T12:44:59.307Z,102.78
2022-12-19T12:47:29.081Z,117.78
2022-12-19T12:50:06.138Z,96.75
2022-12-19T12:52:40.451Z,83.60
2022-12-19T12:55:37.457Z,59.67
2022-12-19T12:58:09.099Z,46.05
2022-12-19T13:00:40.482Z,50.63
2022-12-19T13:03:28.105Z,57.08
2022-12-19T13:06:21.013Z,64.65
2022-12-19T13:08:52.093Z,48.80
2022-12-19T13:11:38.755Z,48.47
2022-12-19T13:14:35.774Z,48.10
2022-12-19T13:17:06.553Z,45.30
2022-12-19T13:20:04.209Z,45.45
2022-12-19T13:22:32.406Z,46.85
2022-12-19T13:25:01.081Z,45.90
2022-12-19T13:27:39.993Z,40.70
2022-12-19T13:30:08.083Z,46.63
2022-12-19T13:32:42.529Z,48.80
2022-12-19T13:36:41.185Z,48.70
2022-12-19T13:39:54.293Z,46.08
2022-12-19T13:41:58.054Z,46.05
2022-12-19T13:44:27.436Z,44.92
2022-12-19T13:46:56.444Z,47.53
2022-12-19T13:49:35.013Z,48.53
2022-12-19T13:52:05.207Z,46.17
2022-12-19T13:54:47.691Z,49.83
2022-12-19T13:57:30.142Z,46.22
2022-12-19T14:00:09.009Z,42.70
2022-12-19T14:02:47.212Z,48.87
2022-12-19T14:06:16.140Z,54.63
2022-12-19T14:08:25.459Z,60.60
2022-12-19T14:11:36.979Z,58.38
2022-12-19T14:14:17.744Z,52.28
2022-12-19T14:16:50.550Z,57.42
2022-12-19T14:19:30.995Z,62.08
2022-12-19T14:22:24.810Z,53.50
2022-12-19T14:25:10.081Z,54.55
2022-12-19T14:28:24.584Z,59.88
2022-12-19T14:31:09.414Z,58.78
2022-12-19T14:34:35.809Z,53.08
2022-12-19T14:39:27.738Z,62.60
2022-12-19T14:43:59.462Z,62.38
2022-12-19T14:52:35.611Z,63.92
2022-12-19T14:54:11.539Z,59.13
2022-12-19T14:54:27.382Z,64.93
2022-12-19T14:57:25.298Z,66.82
2022-12-19T15:00:50.667Z,65.95
2022-12-19T15:03:32.069Z,59.03
2022-12-19T15:07:07.603Z,68.85
2022-12-19T15:11:07.922Z,49.92
2022-12-19T15:14:51.282Z,53.67
2022-12-19T15:16:00.545Z,54.95
2022-12-19T15:18:39.946Z,43.25
2022-12-19T15:21:13.203Z,49.70
2022-12-19T15:23:43.583Z,49.25
2022-12-19T15:26:17.970Z,48.38
2022-12-19T15:28:52.909Z,45.22
2022-12-19T15:31:42.640Z,43.90
2022-12-19T15:34:38.015Z,48.05
2022-12-19T15:37:12.481Z,50.33
2022-12-19T15:39:42.350Z,42.60
2022-12-19T15:42:23.665Z,44.90
2022-12-19T15:44:53.906Z,50.28
2022-12-19T15:47:35.819Z,52.88
2022-12-19T15:50:16.856Z,57.42
2022-12-19T15:52:45.129Z,50.15
2022-12-19T15:55:22.766Z,51.30
2022-12-19T15:58:06.429Z,46.03
2022-12-19T16:00:36.398Z,39.67
2022-12-19T16:06:14.183Z,40.33
2022-12-19T16:08:43.060Z,36.35
2022-12-19T16:11:24.857Z,46.20
2022-12-19T16:13:58.029Z,40.90
2022-12-19T16:16:25.551Z,35.17
2022-12-19T16:18:53.462Z,36.63
2022-12-19T16:21:33.641Z,37.88
2022-12-19T16:24:02.178Z,37.38
2022-12-19T16:26:37.145Z,36.30
2022-12-19T16:29:06.647Z,34.97
2022-12-19T16:31:34.332Z,36.55
2022-12-19T16:34:02.505Z,37.95
2022-12-19T16:36:30.088Z,33.22
2022-12-19T16:38:58.000Z,34.33
2022-12-19T16:41:26.155Z,40.45
2022-12-19T16:43:54.206Z,36.03
2022-12-19T16:46:23.965Z,31.42
2022-12-19T16:48:52.139Z,36.55
2022-12-19T16:51:23.557Z,33.20
2022-12-19T16:53:54.232Z,38.30
2022-12-19T16:56:35.893Z,36.03
2022-12-19T16:59:12.788Z,39.28
2022-12-19T17:01:41.559Z,30.52
2022-12-19T17:04:14.938Z,34.80
2022-12-19T17:06:43.632Z,33.53
2022-12-19T17:09:22.263Z,29.75
2022-12-19T17:11:58.088Z,37.08
2022-12-19T17:14:30.521Z,34.42
2022-12-19T17:16:59.519Z,31.63
2022-12-19T17:22:10.357Z,27.67
2022-12-19T17:24:39.071Z,41.45
2022-12-19T17:27:06.792Z,33.05
2022-12-19T17:29:34.872Z,29.30
2022-12-19T17:32:03.600Z,27.30
2022-12-19T17:34:33.508Z,33.50
2022-12-19T17:37:04.644Z,35.05
2022-12-19T17:39:35.243Z,35.25
2022-12-19T17:42:21.748Z,34.85
2022-12-19T17:44:49.718Z,26.10
2022-12-19T17:47:20.800Z,32.42
2022-12-19T17:49:49.093Z,33.15
2022-12-19T17:52:19.878Z,28.27
2022-12-19T17:54:48.075Z,30.98
2022-12-19T17:57:17.922Z,32.80
2022-12-19T17:59:46.783Z,38.67
2022-12-19T18:02:26.416Z,27.13
2022-12-19T18:04:55.247Z,34.58
2022-12-19T18:07:22.895Z,32.33
2022-12-19T18:09:50.728Z,34.42
2022-12-19T18:12:18.245Z,30.67
2022-12-19T18:14:46.179Z,28.55
2022-12-19T18:17:22.664Z,22.08
2022-12-19T18:19:50.759Z,26.00
2022-12-19T18:22:18.642Z,22.48
2022-12-19T18:24:46.643Z,28.13
2022-12-19T18:27:14.182Z,29.50
2022-12-19T18:29:42.064Z,30.23
2022-12-19T18:32:20.048Z,29.65
2022-12-19T18:37:17.332Z,21.95
2022-12-19T18:39:45.295Z,23.33
2022-12-19T18:42:22.491Z,22.42
2022-12-19T18:44:50.949Z,27.63
2022-12-19T18:47:23.453Z,26.65
2022-12-19T18:49:52.313Z,23.55
2022-12-19T18:52:19.903Z,20.15
2022-12-19T18:54:47.868Z,21.98
2022-12-19T18:57:16.511Z,22.65
2022-12-19T18:59:45.734Z,24.90
2022-12-19T19:02:27.338Z,22.50
2022-12-19T19:04:56.184Z,22.90
2022-12-19T19:07:23.744Z,23.83
2022-12-19T19:09:51.724Z,25.63
2022-12-19T19:12:36.850Z,29.67
2022-12-19T19:15:05.531Z,30.50
2022-12-19T19:17:43.064Z,30.40
2022-12-19T19:20:14.517Z,24.80
2022-12-19T19:22:42.535Z,25.20
2022-12-19T19:25:10.927Z,26.13
2022-12-19T19:27:40.013Z,23.13
2022-12-19T19:30:09.980Z,23.80
2022-12-19T19:32:42.998Z,23.48
2022-12-19T19:35:12.570Z,21.30
2022-12-19T19:37:41.642Z,28.60
2022-12-19T19:40:10.411Z,25.65
2022-12-19T19:42:38.387Z,34.13
2022-12-19T19:45:07.398Z,26.02
2022-12-19T19:47:38.118Z,31.00
2022-12-19T19:50:07.870Z,23.77
2022-12-19T19:52:35.423Z,30.15
2022-12-19T19:55:03.485Z,26.77
2022-12-19T19:57:31.115Z,27.63
2022-12-19T19:59:59.926Z,26.00
2022-12-19T20:02:27.552Z,29.00
2022-12-19T20:04:55.549Z,29.48
2022-12-19T20:07:23.160Z,27.83
2022-12-19T20:09:51.172Z,31.52
2022-12-19T20:12:19.672Z,23.83
2022-12-19T20:14:47.827Z,24.88
2022-12-19T20:17:15.483Z,29.63
2022-12-19T20:19:43.685Z,24.98
2022-12-19T20:22:11.311Z,31.33
2022-12-19T20:24:39.225Z,32.70
2022-12-19T20:27:07.047Z,27.73
2022-12-19T20:29:35.043Z,24.42
2022-12-19T20:32:04.414Z,26.75
2022-12-19T20:34:33.204Z,25.38
2022-12-19T20:37:00.792Z,29.83
2022-12-19T20:39:28.775Z,25.95
2022-12-19T20:41:56.314Z,25.65
2022-12-19T20:44:24.833Z,26.65
2022-12-19T20:46:53.469Z,22.40
2022-12-19T20:49:23.327Z,29.70
2022-12-19T20:54:18.892Z,29.98
2022-12-19T20:56:46.976Z,25.92
2022-12-19T20:59:15.271Z,32.30
2022-12-19T21:01:43.151Z,36.03
2022-12-19T21:04:11.342Z,27.10
2022-12-19T21:06:39.524Z,26.13
2022-12-19T21:09:10.486Z,26.83
2022-12-19T21:11:38.289Z,24.20
2022-12-19T21:14:07.969Z,24.08
2022-12-19T21:19:05.473Z,27.08
2022-12-19T21:21:33.226Z,28.23
2022-12-19T21:24:02.290Z,28.05
2022-12-19T21:26:30.521Z,28.63
2022-12-19T21:28:59.369Z,33.38
2022-12-19T21:31:30.514Z,27.73
2022-12-19T21:34:01.213Z,26.08
2022-12-19T21:36:30.538Z,23.05
2022-12-19T21:39:01.973Z,28.83
2022-12-19T21:41:30.853Z,22.50
2022-12-19T21:44:00.568Z,21.50
2022-12-19T21:49:03.345Z,26.20
2022-12-19T21:51:32.245Z,22.63
2022-12-19T21:54:02.823Z,30.02
2022-12-19T21:56:39.437Z,29.17
2022-12-19T21:59:16.134Z,27.13
2022-12-19T22:01:45.396Z,23.17
2022-12-19T22:04:21.047Z,24.13
2022-12-19T22:06:50.722Z,23.00
2022-12-19T22:09:25.163Z,28.15
2022-12-19T22:11:52.844Z,25.60
2022-12-19T22:14:21.032Z,26.15
2022-12-19T22:16:49.403Z,29.83
2022-12-19T22:19:19.604Z,26.48
2022-12-19T22:21:48.194Z,30.63
2022-12-19T22:24:17.511Z,26.60
2022-12-19T22:26:45.292Z,25.10
2022-12-19T22:29:16.767Z,27.83
2022-12-19T22:31:45.934Z,21.02
2022-12-19T22:34:18.015Z,25.08
2022-12-19T22:36:47.642Z,21.13
2022-12-19T22:39:20.592Z,26.50
2022-12-19T22:41:49.993Z,23.25
2022-12-19T22:44:24.144Z,27.73
2022-12-19T22:46:52.531Z,26.88
2022-12-19T22:49:20.812Z,27.90
2022-12-19T22:51:49.326Z,23.70
2022-12-19T22:54:17.336Z,26.10
2022-12-19T22:56:45.041Z,25.25
2022-12-19T22:59:13.324Z,26.80
2022-12-19T23:01:43.696Z,22.50
2022-12-19T23:04:15.436Z,23.95
2022-12-19T23:06:43.789Z,25.77
2022-12-19T23:09:18.660Z,24.10
2022-12-19T23:11:50.339Z,22.30
2022-12-19T23:14:21.164Z,24.50
2022-12-19T23:16:52.105Z,26.42
2022-12-19T23:19:23.417Z,24.98
2022-12-19T23:21:56.085Z,28.52
2022-12-19T23:24:24.927Z,24.52
2022-12-19T23:26:53.875Z,26.00
2022-12-19T23:29:21.805Z,28.33
2022-12-19T23:31:49.405Z,22.80
2022-12-19T23:34:18.157Z,24.35
2022-12-19T23:39:35.046Z,31.05
2022-12-19T23:42:02.675Z,27.85
2022-12-19T23:44:30.945Z,25.80
2022-12-19T23:47:02.912Z,28.98
2022-12-19T23:49:33.671Z,28.23
2022-12-19T23:52:01.350Z,27.27
2022-12-19T23:54:29.575Z,26.05
2022-12-19T23:56:57.165Z,28.52
2022-12-19T23:59:25.201Z,27.65
